静岡空港の過去48時間の天気

静岡空港 (Shizuoka)

現在時刻: 12/4 13:09 JST (12/4 04:09 UTC) 以下の時間は現地時間です。

過去48時間のMETAR気象情報
時間 風向 風速(m/s) 視程 気温(℃) 湿度(%) 気圧(hPa) 天気現象
4 12:00 2 10km以上 13 47 1019
4 11:00 不定 2 10km以上 13 44 1020
4 10:00 北北東 2 10km以上 12 50 1020
4 09:00 2 10km以上 11 58 1020
4 08:00 2 10km以上 9 71 1020
4 07:30 2 10km以上 8 76 1019
3 21:00 西北西 4 10km以上 10 54 1015
3 20:00 西 7 10km以上 11 54 1015
3 19:00 西 6 10km以上 11 54 1013
3 18:00 西 5 10km以上 12 50 1012
3 17:00 西 8 10km以上 13 47 1012
3 16:00 西 9 10km以上 14 44 1012
3 15:00 西 9 10km以上 15 41 1011
3 14:00 西 7 10km以上 16 39 1012
3 13:00 西 7 10km以上 16 42 1012
3 12:00 西南西 5 10km以上 16 42 1014
3 11:00 不定 1 10km以上 13 67 1015
3 10:00 不定 1 10km以上 12 82 1016
3 09:00 不定 1 10km以上 10 94 1017
3 08:00 北北西 2 10km以上 9 100 1017
3 07:30 北西 2 10km以上 8 100 1017
2 21:00 2 10km以上 10 87 1020
2 20:00 北北東 2 10km以上 11 82 1021
2 19:00 北北東 2 10km以上 11 82 1021
2 18:00 北北東 2 10km以上 11 82 1020
2 17:00 東北東 2 10km以上 12 71 1020
2 16:00 3 10km以上 13 67 1021
2 15:00 2 10km以上 14 63 1020
2 14:00 東北東 2 10km以上 14 63 1021
RJNS 040300Z 08004KT 040V120 9999 FEW025 SCT035 BKN045 13/02 Q1019
RJNS 040200Z VRB03KT 9999 FEW025 13/01 Q1020
RJNS 040100Z 03004KT 310V100 9999 FEW025 12/02 Q1020
RJNS 040000Z 01004KT 320V090 9999 FEW020 SCT050 11/03 Q1020
RJNS 032300Z 36003KT 300V050 9999 FEW020 SCT040 BKN050 09/04 Q1020
RJNS 032230Z 35004KT 9999 FEW020 SCT040 BKN050 08/04 Q1019
RJNS 031200Z 29008KT 260V320 9999 FEW025 10/01 Q1015
RJNS 031100Z 27014KT 9999 FEW025 11/02 Q1015
RJNS 031000Z 27012KT 9999 FEW025 11/02 Q1013
RJNS 030900Z 28010KT 9999 FEW025 12/02 Q1012
RJNS 030800Z 27016KT 9999 FEW025 13/02 Q1012
RJNS 030700Z 26018KT 9999 FEW025 14/02 Q1012
RJNS 030600Z 26017KT 9999 FEW025 15/02 Q1011
RJNS 030500Z 27013KT 220V310 9999 FEW025 16/02 Q1012
RJNS 030400Z 26013KT 210V290 9999 FEW020 16/03 Q1012
RJNS 030300Z 24010KT 200V270 9999 FEW020 16/03 Q1014
RJNS 030200Z VRB02KT 9999 FEW020 13/07 Q1015
RJNS 030100Z VRB02KT 9999 FEW015 SCT020 12/09 Q1016
RJNS 030000Z VRB02KT 9999 FEW005 SCT015 10/09 Q1017
RJNS 022300Z 33004KT 9999 FEW005 09/09 Q1017
RJNS 022230Z 32004KT 9999 FEW003 08/08 Q1017
RJNS 021200Z 01003KT 290V060 9999 FEW020 SCT070 10/08 Q1020
RJNS 021100Z 02004KT 330V050 9999 FEW020 SCT070 11/08 Q1021
RJNS 021000Z 02003KT 320V080 9999 FEW020 BKN040 BKN060 11/08 Q1021
RJNS 020900Z 02003KT 340V070 9999 FEW020 BKN040 11/08 Q1020
RJNS 020800Z 06004KT 9999 FEW020 12/07 Q1020
RJNS 020700Z 08005KT 9999 FEW020 BKN040 13/07 Q1021
RJNS 020600Z 09004KT 9999 FEW025 14/07 Q1020
RJNS 020500Z 06003KT 310V120 9999 FEW025 SCT060 14/07 Q1021